Time;durP1;ratioP1;P1;durP2;ratioP2;P2;SDS_P1;SDS_P2;PMS_P1;PMS_P2;Temp;Humidity;BMP_temperature;BMP_pressure;BME280_temperature;BME280_humidity;BME280_pressure;Samples;Min_cycle;Max_cycle;Signal;HPM_P1;HPM_P2
2024/03/13 00:01:00;;;;;;;33.63;16.97;;;8.60;99.90;;;;;;771481;182;26475;-76
2024/03/13 00:03:26;;;;;;;34.13;17.77;;;8.60;99.90;;;;;;788730;180;26460;-76
2024/03/13 00:05:54;;;;;;;40.13;18.80;;;8.60;99.90;;;;;;783635;180;26469;-75
2024/03/13 00:08:22;;;;;;;32.30;17.30;;;8.60;99.90;;;;;;768591;183;26520;-74
2024/03/13 00:10:49;;;;;;;32.27;15.43;;;8.60;99.90;;;;;;769004;184;27097;-76
2024/03/13 00:13:15;;;;;;;32.00;15.87;;;8.70;99.90;;;;;;769259;183;27026;-75
2024/03/13 00:15:43;;;;;;;36.53;16.33;;;8.70;99.90;;;;;;775949;183;26469;-76
2024/03/13 00:18:10;;;;;;;33.33;16.43;;;8.70;99.90;;;;;;779423;182;26441;-75
2024/03/13 00:20:36;;;;;;;28.40;16.27;;;8.70;99.90;;;;;;774266;182;26641;-76
2024/03/13 00:23:04;;;;;;;33.73;17.27;;;8.60;99.90;;;;;;774196;183;26510;-76
2024/03/13 00:25:30;;;;;;;29.80;16.37;;;8.60;99.90;;;;;;774608;183;26474;-76
2024/03/13 00:27:57;;;;;;;28.90;16.23;;;8.60;99.90;;;;;;771267;183;26471;-77
2024/03/13 00:30:24;;;;;;;30.17;16.20;;;8.60;99.90;;;;;;784031;180;26528;-77
2024/03/13 00:32:53;;;;;;;28.97;16.20;;;8.50;99.90;;;;;;785510;180;26479;-77
2024/03/13 00:35:20;;;;;;;29.57;17.37;;;8.60;99.90;;;;;;775086;183;26566;-77
2024/03/13 00:37:46;;;;;;;33.90;16.67;;;8.50;99.90;;;;;;780720;181;26491;-77
2024/03/13 00:40:13;;;;;;;34.33;17.80;;;8.50;99.90;;;;;;781822;180;26640;-77
2024/03/13 00:42:42;;;;;;;35.57;18.00;;;8.60;99.90;;;;;;786900;180;26472;-77
2024/03/13 00:45:07;;;;;;;36.90;17.63;;;8.60;99.90;;;;;;780125;181;26435;-77
2024/03/13 00:47:34;;;;;;;40.33;18.37;;;8.60;99.90;;;;;;779362;178;26483;-80
2024/03/13 00:50:09;;;;;;;35.27;17.30;;;8.60;99.90;;;;;;793063;169;26488;-79
2024/03/13 00:52:37;;;;;;;34.87;17.30;;;8.60;99.90;;;;;;814754;176;26446;-80
2024/03/13 00:55:02;;;;;;;34.33;19.30;;;8.60;99.90;;;;;;802899;176;26440;-82
2024/03/13 00:57:28;;;;;;;38.23;18.33;;;8.60;99.90;;;;;;813579;176;26442;-82
2024/03/13 00:59:58;;;;;;;33.13;17.20;;;8.60;99.90;;;;;;801803;176;26480;-80
2024/03/13 01:02:27;;;;;;;33.97;17.40;;;8.50;99.90;;;;;;792134;179;26486;-81
2024/03/13 01:04:54;;;;;;;32.00;16.73;;;8.60;99.90;;;;;;801696;179;26487;-80
2024/03/13 01:07:22;;;;;;;33.37;17.43;;;8.60;99.90;;;;;;789807;179;26501;-80
2024/03/13 01:09:47;;;;;;;36.93;17.97;;;8.60;99.90;;;;;;795469;179;26607;-82
2024/03/13 01:12:19;;;;;;;33.93;17.63;;;8.50;99.90;;;;;;798323;179;26472;-82
2024/03/13 01:14:47;;;;;;;40.80;19.13;;;8.60;99.90;;;;;;795184;179;26514;-82
2024/03/13 01:17:17;;;;;;;46.93;19.77;;;8.60;99.90;;;;;;797313;179;26456;-81
2024/03/13 01:19:50;;;;;;;44.23;18.87;;;8.60;99.90;;;;;;794514;179;26573;-82
2024/03/13 01:22:22;;;;;;;47.30;20.23;;;8.50;99.90;;;;;;797334;179;26461;-80
2024/03/13 01:24:52;;;;;;;43.07;20.10;;;8.60;99.90;;;;;;793618;180;26477;-81
2024/03/13 01:27:23;;;;;;;42.83;19.17;;;8.60;99.90;;;;;;799758;179;26467;-80
2024/03/13 01:29:50;;;;;;;42.00;19.43;;;8.50;99.90;;;;;;795735;178;26525;-81
2024/03/13 01:32:17;;;;;;;36.37;18.27;;;8.60;99.90;;;;;;799933;179;26458;-82
2024/03/13 01:34:43;;;;;;;41.97;19.57;;;8.60;99.90;;;;;;800461;179;26992;-80
2024/03/13 01:39:43;;;;;;;35.73;17.60;;;8.60;99.90;;;;;;794263;176;26554;-80
2024/03/13 01:55:13;;;;;;;35.07;16.13;;;8.60;99.90;;;;;;787532;179;26520;-80
2024/03/13 01:57:45;;;;;;;32.80;15.97;;;8.60;99.90;;;;;;788631;179;26489;-79
2024/03/13 02:02:33;;;;;;;27.27;14.80;;;8.60;99.90;;;;;;792292;179;26461;-79
2024/03/13 02:05:00;;;;;;;33.47;15.30;;;8.60;99.90;;;;;;799007;179;26464;-80
2024/03/13 02:07:26;;;;;;;30.90;15.43;;;8.60;99.90;;;;;;794617;179;26452;-80
2024/03/13 02:09:54;;;;;;;34.20;16.03;;;8.60;99.90;;;;;;795328;179;26479;-80
2024/03/13 02:12:20;;;;;;;34.87;17.03;;;8.60;99.90;;;;;;798864;179;26461;-79
2024/03/13 02:14:46;;;;;;;28.37;14.80;;;8.60;99.90;;;;;;787802;179;26477;-81
2024/03/13 02:17:13;;;;;;;29.87;16.20;;;8.60;99.90;;;;;;790703;179;26461;-79
2024/03/13 02:19:41;;;;;;;36.30;16.00;;;8.60;99.90;;;;;;797200;179;26538;-79
2024/03/13 02:22:07;;;;;;;33.63;15.17;;;8.60;99.90;;;;;;791154;179;26574;-80
2024/03/13 02:24:34;;;;;;;35.83;15.83;;;8.60;99.90;;;;;;798906;180;26518;-79
2024/03/13 02:27:00;;;;;;;34.50;16.40;;;8.60;99.90;;;;;;794552;179;26472;-80
2024/03/13 02:29:28;;;;;;;34.20;16.10;;;8.60;99.90;;;;;;791826;179;27082;-79
2024/03/13 02:31:54;;;;;;;27.87;14.87;;;8.60;99.90;;;;;;792642;179;26456;-80
2024/03/13 02:34:20;;;;;;;28.77;15.20;;;8.60;99.90;;;;;;802920;179;26463;-81
2024/03/13 02:36:47;;;;;;;33.67;16.03;;;8.60;99.90;;;;;;795062;179;26508;-79
2024/03/13 02:39:18;;;;;;;25.73;14.33;;;8.60;99.90;;;;;;796713;179;27031;-80
2024/03/13 02:41:41;;;;;;;25.87;13.83;;;8.60;99.90;;;;;;788886;178;26456;-80
2024/03/13 02:44:07;;;;;;;28.27;14.00;;;8.60;99.90;;;;;;793258;179;26724;-80
2024/03/13 02:46:34;;;;;;;26.07;14.50;;;8.60;99.90;;;;;;790937;179;26465;-81
2024/03/13 02:49:00;;;;;;;29.43;15.33;;;8.60;99.90;;;;;;797686;179;26970;-81
2024/03/13 02:51:27;;;;;;;30.60;15.60;;;8.60;99.90;;;;;;798393;179;26455;-80
2024/03/13 02:53:54;;;;;;;32.17;15.70;;;8.60;99.90;;;;;;775971;179;26443;-80
2024/03/13 02:56:21;;;;;;;29.67;15.53;;;8.60;99.90;;;;;;800846;179;26618;-80
2024/03/13 02:58:52;;;;;;;27.03;14.97;;;8.60;99.90;;;;;;798868;179;26470;-81
2024/03/13 03:01:18;;;;;;;33.23;15.47;;;8.60;99.90;;;;;;795593;179;26474;-80
2024/03/13 03:03:49;;;;;;;29.23;15.00;;;8.60;99.90;;;;;;791817;179;26502;-82
2024/03/13 03:06:15;;;;;;;26.80;14.00;;;8.70;99.90;;;;;;798343;179;26451;-82
2024/03/13 03:08:42;;;;;;;24.00;13.57;;;8.60;99.90;;;;;;799079;179;26504;-82
2024/03/13 03:11:12;;;;;;;29.13;13.73;;;8.60;99.90;;;;;;800102;177;26484;-81
2024/03/13 03:13:41;;;;;;;27.73;13.37;;;8.60;99.90;;;;;;797301;179;26600;-80
2024/03/13 03:16:09;;;;;;;26.17;13.60;;;8.60;99.90;;;;;;798042;179;26458;-82
2024/03/13 03:18:36;;;;;;;26.67;13.70;;;8.60;99.90;;;;;;793944;179;26445;-81
2024/03/13 03:21:03;;;;;;;25.40;12.77;;;8.60;99.90;;;;;;793227;179;26476;-81
2024/03/13 03:23:46;;;;;;;;;;;;;;;;;;;;;
2024/03/13 03:26:18;;;;;;;23.17;12.73;;;8.60;99.90;;;;;;793844;179;26461;-81
2024/03/13 03:28:49;;;;;;;23.63;12.57;;;8.60;99.90;;;;;;800344;179;26468;-79
2024/03/13 03:31:17;;;;;;;25.97;14.40;;;8.60;99.90;;;;;;796965;179;26499;-82
2024/03/13 03:33:45;;;;;;;24.17;13.10;;;8.60;99.90;;;;;;797335;179;26447;-82
2024/03/13 03:36:14;;;;;;;28.20;13.77;;;8.60;99.90;;;;;;795228;179;26526;-81
2024/03/13 03:38:38;;;;;;;23.33;12.70;;;8.70;99.90;;;;;;800468;179;26459;-81
2024/03/13 03:41:06;;;;;;;21.87;12.13;;;8.70;99.90;;;;;;796012;176;26527;-82
2024/03/13 03:43:35;;;;;;;24.77;13.40;;;8.70;99.90;;;;;;788162;179;26464;-82
2024/03/13 03:46:04;;;;;;;24.50;13.40;;;8.70;99.90;;;;;;793220;179;26484;-81
2024/03/13 03:48:31;;;;;;;22.43;12.27;;;8.70;99.90;;;;;;795776;179;26466;-81
2024/03/13 03:50:59;;;;;;;29.13;14.80;;;8.70;99.90;;;;;;799842;179;26479;-80
2024/03/13 03:53:27;;;;;;;25.60;13.77;;;8.70;99.90;;;;;;802516;177;26631;-81
2024/03/13 03:55:55;;;;;;;24.53;13.90;;;8.80;99.90;;;;;;796039;179;26451;-80
2024/03/13 03:58:28;;;;;;;24.57;13.27;;;8.70;99.90;;;;;;799797;179;26459;-81
2024/03/13 04:00:55;;;;;;;24.87;13.80;;;8.70;99.90;;;;;;799896;176;26464;-81
2024/03/13 04:03:21;;;;;;;25.00;14.13;;;8.70;99.90;;;;;;802345;179;26459;-82
2024/03/13 04:05:49;;;;;;;22.77;12.47;;;8.70;99.90;;;;;;795830;179;26538;-81
2024/03/13 04:08:16;;;;;;;24.33;13.83;;;8.70;99.90;;;;;;791216;179;26525;-82
2024/03/13 04:10:43;;;;;;;25.70;13.63;;;8.70;99.90;;;;;;791593;176;26478;-81
2024/03/13 04:13:10;;;;;;;21.03;12.30;;;8.70;99.90;;;;;;796793;179;26452;-82
2024/03/13 04:15:36;;;;;;;21.73;13.13;;;8.70;99.90;;;;;;796043;179;26815;-81
2024/03/13 04:18:03;;;;;;;26.57;13.33;;;8.70;99.90;;;;;;796186;179;26480;-82
2024/03/13 04:20:38;;;;;;;22.77;12.33;;;8.70;99.90;;;;;;795707;176;26520;-82
2024/03/13 04:23:07;;;;;;;24.10;13.40;;;8.70;99.90;;;;;;795410;179;26451;-82
2024/03/13 04:25:40;;;;;;;22.97;12.80;;;8.70;99.90;;;;;;792417;178;26486;-80
2024/03/13 04:28:08;;;;;;;21.47;12.17;;;8.80;99.90;;;;;;797251;179;26451;-79
2024/03/13 04:30:35;;;;;;;23.63;12.37;;;8.80;99.90;;;;;;794788;176;26459;-81
2024/03/13 04:33:05;;;;;;;24.27;13.37;;;8.80;99.90;;;;;;794926;179;26465;-80
2024/03/13 04:35:32;;;;;;;26.33;14.10;;;8.70;99.90;;;;;;788891;179;26458;-81
2024/03/13 04:38:04;;;;;;;23.67;13.30;;;8.80;99.90;;;;;;800951;179;26480;-79
2024/03/13 04:40:34;;;;;;;25.23;13.07;;;8.70;99.90;;;;;;792320;176;26478;-81
2024/03/13 04:43:02;;;;;;;22.40;12.83;;;8.80;99.90;;;;;;794548;179;26490;-81
2024/03/13 04:45:37;;;;;;;23.37;13.60;;;8.80;99.90;;;;;;795182;179;26453;-82
2024/03/13 04:48:05;;;;;;;23.47;13.10;;;8.80;99.90;;;;;;803050;179;26458;-80
2024/03/13 04:50:34;;;;;;;26.73;14.57;;;8.80;99.90;;;;;;784391;180;26652;-81
2024/03/13 04:53:02;;;;;;;26.93;13.07;;;8.80;99.90;;;;;;788884;179;26455;-81
2024/03/13 04:55:33;;;;;;;20.97;11.93;;;8.80;99.90;;;;;;786058;182;26456;-81
2024/03/13 04:58:01;;;;;;;25.30;13.83;;;8.80;99.90;;;;;;803476;179;26466;-82
2024/03/13 05:00:31;;;;;;;25.33;14.13;;;8.80;99.90;;;;;;790853;179;26459;-81
2024/03/13 05:03:03;;;;;;;26.03;13.63;;;8.80;99.90;;;;;;795971;179;26387;-81
2024/03/13 05:05:29;;;;;;;27.43;14.37;;;8.80;99.90;;;;;;797783;179;26436;-80
2024/03/13 05:07:59;;;;;;;26.97;14.47;;;8.80;99.90;;;;;;797469;179;26454;-80
2024/03/13 05:10:29;;;;;;;26.23;14.30;;;8.80;99.90;;;;;;791282;178;26457;-80
2024/03/13 05:13:03;;;;;;;23.83;12.80;;;8.80;99.90;;;;;;797898;179;26561;-79
2024/03/13 05:15:30;;;;;;;24.00;13.33;;;8.80;99.90;;;;;;793827;179;26456;-81
2024/03/13 05:18:00;;;;;;;23.73;12.60;;;8.80;99.90;;;;;;802119;179;26466;-80
2024/03/13 05:20:28;;;;;;;25.60;13.53;;;8.90;99.90;;;;;;799056;176;26461;-81
2024/03/13 05:22:53;;;;;;;25.60;13.40;;;8.80;99.90;;;;;;796041;179;26462;-81
2024/03/13 05:25:22;;;;;;;28.73;14.80;;;8.80;99.90;;;;;;800802;179;26461;-81
2024/03/13 05:27:47;;;;;;;26.77;13.07;;;8.80;99.90;;;;;;795895;179;26482;-80
2024/03/13 05:30:18;;;;;;;26.87;14.07;;;8.80;99.90;;;;;;801403;176;26464;-81
2024/03/13 05:32:51;;;;;;;27.77;14.77;;;8.80;99.90;;;;;;804138;179;26465;-80
2024/03/13 05:35:18;;;;;;;24.63;13.97;;;8.90;99.90;;;;;;797592;179;26471;-81
2024/03/13 05:37:46;;;;;;;23.50;13.63;;;8.90;99.90;;;;;;800914;179;26455;-80
2024/03/13 05:40:16;;;;;;;28.77;13.90;;;8.90;99.90;;;;;;785763;179;26501;-82
2024/03/13 05:42:42;;;;;;;26.10;14.60;;;8.90;99.90;;;;;;789448;179;26503;-81
2024/03/13 05:45:10;;;;;;;25.13;14.23;;;8.90;99.90;;;;;;777919;179;26568;-81
2024/03/13 05:47:43;;;;;;;29.03;14.30;;;8.90;99.90;;;;;;788955;179;26450;-81
2024/03/13 05:50:11;;;;;;;26.47;14.00;;;8.90;99.90;;;;;;795350;179;26466;-80
2024/03/13 05:52:55;;;;;;;26.47;13.93;;;9.00;99.90;;;;;;799056;179;26452;-81
2024/03/13 05:55:22;;;;;;;26.50;14.00;;;9.00;99.90;;;;;;795495;179;26472;-81
2024/03/13 05:57:52;;;;;;;22.73;13.90;;;9.00;99.90;;;;;;790288;179;26456;-80
2024/03/13 06:00:22;;;;;;;27.77;14.67;;;9.00;99.90;;;;;;792750;179;26453;-79
2024/03/13 06:02:52;;;;;;;28.10;15.03;;;9.00;99.90;;;;;;796494;179;26472;-81
2024/03/13 06:05:23;;;;;;;29.27;14.93;;;9.00;99.90;;;;;;794150;179;26996;-81
2024/03/13 06:07:56;;;;;;;27.97;15.43;;;9.00;99.90;;;;;;801363;179;26522;-79
2024/03/13 06:10:24;;;;;;;28.00;15.17;;;9.00;99.90;;;;;;794016;177;26446;-81
2024/03/13 06:12:53;;;;;;;29.33;15.23;;;9.00;99.90;;;;;;799583;179;26477;-81
2024/03/13 06:15:22;;;;;;;29.87;16.07;;;9.00;99.90;;;;;;794877;178;26457;-81
2024/03/13 06:17:50;;;;;;;31.93;15.73;;;9.10;99.90;;;;;;795677;178;26455;-81
2024/03/13 06:20:17;;;;;;;32.63;16.97;;;9.10;99.90;;;;;;796639;175;26476;-81
2024/03/13 06:22:43;;;;;;;31.07;16.37;;;9.10;99.90;;;;;;793219;179;26990;-81
2024/03/13 06:25:13;;;;;;;28.53;16.27;;;9.10;99.90;;;;;;795744;179;26465;-81
2024/03/13 06:27:45;;;;;;;28.60;15.63;;;9.20;99.90;;;;;;780346;179;27073;-81
2024/03/13 06:30:15;;;;;;;30.67;16.83;;;9.20;99.90;;;;;;798027;176;26502;-80
2024/03/13 06:32:45;;;;;;;33.17;18.97;;;9.20;99.90;;;;;;801591;179;26456;-79
2024/03/13 06:35:13;;;;;;;33.43;17.43;;;9.20;99.90;;;;;;801110;179;26504;-80
2024/03/13 06:37:43;;;;;;;29.97;16.13;;;9.30;99.90;;;;;;795194;179;26437;-81
2024/03/13 06:40:11;;;;;;;33.13;16.83;;;9.20;99.90;;;;;;791916;179;26471;-81
2024/03/13 06:42:37;;;;;;;30.17;16.27;;;9.30;99.90;;;;;;802110;179;26470;-78
2024/03/13 06:45:08;;;;;;;28.80;15.53;;;9.30;99.90;;;;;;795993;179;26476;-80
2024/03/13 06:47:35;;;;;;;30.73;15.73;;;9.40;99.90;;;;;;790120;179;26460;-81
2024/03/13 06:50:01;;;;;;;31.43;16.77;;;9.40;99.90;;;;;;796992;169;26469;-78
2024/03/13 06:52:28;;;;;;;24.87;15.30;;;9.40;99.90;;;;;;793289;179;26460;-78
2024/03/13 06:54:54;;;;;;;30.77;15.93;;;9.40;99.90;;;;;;794254;180;26528;-79
2024/03/13 06:57:23;;;;;;;25.30;15.67;;;9.40;99.90;;;;;;793702;179;26480;-78
2024/03/13 06:59:48;;;;;;;28.97;16.20;;;9.40;99.90;;;;;;794571;180;26433;-78
2024/03/13 07:02:14;;;;;;;30.90;16.70;;;9.50;99.90;;;;;;789183;180;26526;-79
2024/03/13 07:04:42;;;;;;;31.27;17.53;;;9.50;99.90;;;;;;786687;181;26494;-78
2024/03/13 07:07:07;;;;;;;26.77;15.73;;;9.60;99.90;;;;;;788048;181;27081;-79
2024/03/13 07:09:36;;;;;;;29.97;16.57;;;9.60;99.90;;;;;;791923;180;26470;-78
2024/03/13 07:12:01;;;;;;;29.50;16.40;;;9.70;99.90;;;;;;789974;181;26480;-80
2024/03/13 07:14:27;;;;;;;33.23;16.67;;;9.70;99.90;;;;;;794276;181;26589;-78
2024/03/13 07:16:54;;;;;;;31.03;17.27;;;9.70;99.90;;;;;;795160;180;26444;-77
2024/03/13 07:19:21;;;;;;;32.53;17.33;;;9.80;99.90;;;;;;787202;181;26517;-78
2024/03/13 07:21:47;;;;;;;30.00;17.30;;;9.90;99.90;;;;;;789512;181;26537;-77
2024/03/13 07:24:14;;;;;;;26.73;16.23;;;9.90;99.90;;;;;;791094;180;26513;-79
2024/03/13 07:26:41;;;;;;;29.50;17.33;;;9.90;99.90;;;;;;790902;179;26502;-79
2024/03/13 07:29:07;;;;;;;27.47;15.90;;;10.00;99.90;;;;;;792516;179;27030;-79
2024/03/13 07:31:33;;;;;;;28.93;16.70;;;10.00;99.90;;;;;;790428;180;26492;-79
2024/03/13 07:34:00;;;;;;;28.40;18.30;;;10.10;99.90;;;;;;792689;181;26476;-78
2024/03/13 07:36:27;;;;;;;30.27;18.37;;;10.20;99.90;;;;;;791265;181;27091;-79
2024/03/13 07:38:55;;;;;;;26.93;16.03;;;10.30;99.90;;;;;;791536;179;26495;-79
2024/03/13 07:41:20;;;;;;;25.30;15.77;;;10.30;99.90;;;;;;792218;178;26472;-79
2024/03/13 07:43:48;;;;;;;26.63;15.63;;;10.40;99.90;;;;;;791884;181;26473;-80
2024/03/13 07:46:15;;;;;;;32.87;17.40;;;10.50;99.90;;;;;;791408;179;26460;-79
2024/03/13 07:48:41;;;;;;;31.17;15.90;;;10.50;99.90;;;;;;786843;181;26609;-79
2024/03/13 07:51:07;;;;;;;25.60;16.13;;;10.60;99.90;;;;;;788493;180;27034;-78
2024/03/13 07:53:35;;;;;;;21.90;15.27;;;10.60;99.90;;;;;;789201;180;26503;-79
2024/03/13 07:56:00;;;;;;;25.00;15.03;;;10.60;99.90;;;;;;789210;180;26906;-79
2024/03/13 07:58:27;;;;;;;25.50;12.10;;;10.70;99.90;;;;;;790054;180;26482;-79
2024/03/13 08:00:54;;;;;;;22.83;13.83;;;10.70;99.90;;;;;;788706;179;26504;-80
2024/03/13 08:03:20;;;;;;;19.70;11.27;;;10.80;99.90;;;;;;786873;181;26448;-79
2024/03/13 08:05:48;;;;;;;18.47;10.83;;;10.90;99.90;;;;;;789300;179;26507;-80
2024/03/13 08:08:16;;;;;;;21.80;11.47;;;10.90;99.90;;;;;;793790;181;26447;-80
2024/03/13 08:10:42;;;;;;;21.33;11.40;;;10.90;99.90;;;;;;788760;180;26552;-80
2024/03/13 08:13:09;;;;;;;18.63;10.67;;;11.10;99.90;;;;;;788607;180;26483;-80
2024/03/13 08:15:35;;;;;;;21.50;10.40;;;11.10;99.90;;;;;;788360;180;26550;-78
2024/03/13 08:18:02;;;;;;;15.50;9.73;;;11.10;99.90;;;;;;787683;180;26555;-77
2024/03/13 08:20:29;;;;;;;16.90;10.13;;;11.20;99.90;;;;;;789132;180;26590;-78
2024/03/13 08:22:55;;;;;;;17.53;10.33;;;11.20;99.90;;;;;;791380;180;26619;-79
2024/03/13 08:25:22;;;;;;;26.27;10.30;;;11.20;99.90;;;;;;789997;181;26469;-78
2024/03/13 08:27:50;;;;;;;19.47;11.00;;;11.20;99.90;;;;;;790652;181;26452;-79
2024/03/13 08:30:17;;;;;;;21.37;11.07;;;11.20;99.90;;;;;;792148;180;27057;-80
2024/03/13 08:32:44;;;;;;;18.67;9.97;;;11.10;99.90;;;;;;790802;180;27125;-79
2024/03/13 08:35:13;;;;;;;21.00;12.00;;;11.10;99.90;;;;;;791945;179;26478;-79
2024/03/13 08:37:37;;;;;;;22.60;11.50;;;11.10;99.90;;;;;;793191;179;26487;-78
2024/03/13 08:40:07;;;;;;;21.87;11.77;;;11.10;99.90;;;;;;791501;179;26455;-79
2024/03/13 08:42:31;;;;;;;25.60;12.07;;;11.10;99.90;;;;;;792315;181;26480;-79
2024/03/13 08:44:57;;;;;;;20.90;10.50;;;11.20;99.90;;;;;;792144;179;26670;-79
2024/03/13 08:47:26;;;;;;;22.43;9.93;;;11.20;99.90;;;;;;791165;178;26489;-79
2024/03/13 08:49:51;;;;;;;19.70;10.37;;;11.20;99.90;;;;;;790756;181;26475;-80
2024/03/13 08:52:18;;;;;;;24.07;11.43;;;11.10;99.90;;;;;;793980;180;26504;-78
2024/03/13 08:54:44;;;;;;;19.60;9.73;;;11.10;99.90;;;;;;790035;180;26472;-79
2024/03/13 08:57:11;;;;;;;20.50;10.20;;;11.10;99.90;;;;;;790309;181;26994;-80
2024/03/13 08:59:38;;;;;;;22.27;10.83;;;11.10;99.90;;;;;;789833;181;26460;-79
2024/03/13 09:02:05;;;;;;;21.67;11.00;;;11.20;99.90;;;;;;790079;180;26485;-79
2024/03/13 09:04:33;;;;;;;24.03;12.63;;;11.10;99.90;;;;;;793668;180;26793;-79
2024/03/13 09:07:00;;;;;;;20.30;11.13;;;11.20;99.90;;;;;;792375;181;26640;-78
2024/03/13 09:09:25;;;;;;;29.40;13.53;;;11.20;99.90;;;;;;791227;180;26466;-78
2024/03/13 09:11:52;;;;;;;26.73;11.27;;;11.30;99.90;;;;;;791923;180;26511;-78
2024/03/13 09:14:19;;;;;;;32.53;13.03;;;11.30;99.90;;;;;;791206;180;26488;-78
2024/03/13 09:16:47;;;;;;;25.83;11.47;;;11.30;99.90;;;;;;791896;180;26535;-79
2024/03/13 09:19:11;;;;;;;20.13;11.47;;;11.30;99.90;;;;;;790742;181;26557;-79
2024/03/13 09:21:38;;;;;;;22.80;11.67;;;11.40;99.90;;;;;;790300;181;26533;-79
2024/03/13 09:24:05;;;;;;;23.23;11.23;;;11.50;99.90;;;;;;791036;181;26492;-79
2024/03/13 09:26:34;;;;;;;28.23;12.07;;;11.60;99.90;;;;;;789070;181;27076;-79
2024/03/13 09:29:01;;;;;;;21.90;9.93;;;11.70;99.90;;;;;;787214;180;26517;-79
2024/03/13 09:31:26;;;;;;;18.60;9.03;;;11.70;99.90;;;;;;788403;180;26520;-79
2024/03/13 09:33:53;;;;;;;23.40;10.77;;;11.80;99.90;;;;;;788533;180;26536;-79
2024/03/13 09:36:19;;;;;;;19.13;9.23;;;11.90;99.90;;;;;;789209;181;26626;-80
2024/03/13 09:38:46;;;;;;;19.50;9.60;;;11.90;99.90;;;;;;789535;180;26469;-81
2024/03/13 09:41:13;;;;;;;19.17;10.90;;;12.00;99.90;;;;;;791896;180;26475;-79
2024/03/13 09:43:40;;;;;;;15.43;8.77;;;12.10;99.90;;;;;;788472;181;26546;-80
2024/03/13 09:46:07;;;;;;;15.57;9.20;;;12.20;99.90;;;;;;791628;181;26478;-80
2024/03/13 09:48:37;;;;;;;15.23;8.90;;;12.20;99.90;;;;;;790240;180;26493;-80
2024/03/13 09:51:01;;;;;;;13.63;7.50;;;12.30;99.90;;;;;;795011;179;26497;-81
2024/03/13 09:53:28;;;;;;;19.20;9.93;;;12.20;99.90;;;;;;792709;177;26564;-80
2024/03/13 09:55:54;;;;;;;23.10;11.43;;;12.20;99.90;;;;;;792120;181;26504;-80
2024/03/13 09:58:20;;;;;;;13.00;8.10;;;12.20;99.90;;;;;;790868;180;26525;-80
2024/03/13 10:00:47;;;;;;;18.50;9.13;;;12.30;99.90;;;;;;788484;181;26619;-81
2024/03/13 10:03:15;;;;;;;13.67;7.33;;;12.40;99.90;;;;;;791010;180;26589;-81
2024/03/13 10:05:41;;;;;;;14.33;8.13;;;12.50;99.90;;;;;;789995;180;26530;-81
2024/03/13 10:08:08;;;;;;;12.83;7.53;;;12.70;99.90;;;;;;792101;180;26515;-80
2024/03/13 10:10:34;;;;;;;12.90;7.90;;;12.80;99.90;;;;;;789892;180;27031;-79
2024/03/13 10:13:01;;;;;;;14.03;8.70;;;12.90;99.90;;;;;;791707;180;27177;-79
2024/03/13 10:15:27;;;;;;;13.53;7.20;;;12.80;99.90;;;;;;787932;181;26475;-79
2024/03/13 10:18:10;;;;;;;8.97;5.70;;;12.90;99.90;;;;;;789522;180;26464;-81
2024/03/13 10:20:38;;;;;;;11.67;6.23;;;12.80;99.90;;;;;;789144;181;26521;-81
2024/03/13 10:23:04;;;;;;;11.40;6.13;;;12.90;99.90;;;;;;790511;181;27011;-81
2024/03/13 10:25:32;;;;;;;8.30;5.27;;;13.30;99.90;;;;;;791382;180;26451;-83
2024/03/13 10:27:58;;;;;;;10.17;5.60;;;13.50;99.90;;;;;;792500;181;26484;-82
2024/03/13 10:30:25;;;;;;;8.70;5.50;;;13.70;99.90;;;;;;789190;181;26461;-83
2024/03/13 10:32:51;;;;;;;15.13;8.90;;;13.90;99.90;;;;;;790378;181;26973;-79
2024/03/13 10:35:18;;;;;;;13.93;7.90;;;13.80;99.90;;;;;;793352;180;27021;-79
2024/03/13 10:37:44;;;;;;;12.80;5.23;;;13.50;99.90;;;;;;790187;180;26472;-83
2024/03/13 10:40:14;;;;;;;8.87;5.57;;;13.60;99.90;;;;;;792692;180;26456;-80
2024/03/13 10:42:38;;;;;;;8.40;5.50;;;13.60;99.90;;;;;;788125;180;26489;-79
2024/03/13 10:45:05;;;;;;;6.47;4.43;;;13.40;99.90;;;;;;789425;181;26493;-79
2024/03/13 10:47:32;;;;;;;6.67;4.00;;;13.20;99.90;;;;;;790802;180;26472;-80
2024/03/13 10:49:58;;;;;;;8.23;4.40;;;13.10;99.90;;;;;;791803;178;26464;-80
2024/03/13 10:52:26;;;;;;;8.60;5.43;;;13.30;99.90;;;;;;792061;180;26474;-81
2024/03/13 10:54:52;;;;;;;9.43;5.23;;;13.40;99.90;;;;;;791324;180;27013;-80
2024/03/13 10:57:18;;;;;;;6.07;3.80;;;13.60;99.90;;;;;;796378;180;26478;-80
2024/03/13 10:59:48;;;;;;;5.77;3.40;;;13.60;99.90;;;;;;789605;180;26500;-80
2024/03/13 11:02:15;;;;;;;9.47;5.77;;;13.60;99.90;;;;;;794587;177;26472;-78
2024/03/13 11:04:41;;;;;;;9.33;6.03;;;13.30;99.90;;;;;;791673;181;26486;-78
2024/03/13 11:07:08;;;;;;;24.17;13.50;;;13.30;99.90;;;;;;793920;179;26547;-78
2024/03/13 11:09:34;;;;;;;27.90;15.57;;;13.20;99.90;;;;;;789345;181;26459;-79
2024/03/13 11:12:01;;;;;;;8.07;4.50;;;13.30;99.90;;;;;;790484;181;26497;-78
2024/03/13 11:14:28;;;;;;;18.87;12.53;;;13.30;99.90;;;;;;790637;181;26592;-79
2024/03/13 11:16:56;;;;;;;20.10;12.10;;;13.40;99.90;;;;;;789026;181;28852;-78
2024/03/13 11:19:23;;;;;;;29.60;17.70;;;13.30;99.90;;;;;;789677;179;26465;-79
2024/03/13 11:21:50;;;;;;;71.20;38.23;;;13.30;99.90;;;;;;790564;180;26655;-78
2024/03/13 11:24:18;;;;;;;44.27;25.90;;;13.40;99.90;;;;;;790255;180;27023;-77
2024/03/13 11:26:43;;;;;;;19.10;12.00;;;13.30;99.90;;;;;;789414;180;26479;-78
2024/03/13 11:29:11;;;;;;;13.03;7.70;;;13.20;99.90;;;;;;790695;180;26447;-78
2024/03/13 11:31:37;;;;;;;28.07;15.43;;;13.20;99.90;;;;;;791454;180;26544;-79
2024/03/13 11:34:05;;;;;;;65.77;32.67;;;13.30;99.90;;;;;;791177;180;26477;-79
2024/03/13 11:36:30;;;;;;;239.87;110.00;;;13.50;99.90;;;;;;791952;181;26459;-79
2024/03/13 11:38:57;;;;;;;28.00;14.13;;;13.60;99.90;;;;;;792664;179;26610;-80
2024/03/13 11:41:24;;;;;;;43.90;21.33;;;13.60;99.90;;;;;;790271;180;26492;-79
2024/03/13 11:43:51;;;;;;;45.17;23.43;;;13.40;99.90;;;;;;791652;180;26480;-79
2024/03/13 11:46:22;;;;;;;82.30;37.20;;;13.40;99.90;;;;;;789714;181;26470;-79
2024/03/13 11:48:44;;;;;;;80.93;38.73;;;13.40;99.90;;;;;;789659;180;26471;-79
2024/03/13 11:51:10;;;;;;;80.80;40.53;;;13.30;99.90;;;;;;790431;180;26613;-78
2024/03/13 11:53:40;;;;;;;38.80;18.97;;;13.30;99.90;;;;;;789788;180;26465;-79
2024/03/13 11:56:05;;;;;;;71.67;35.80;;;13.30;99.90;;;;;;787872;180;26454;-79
2024/03/13 11:58:32;;;;;;;33.73;18.73;;;13.30;99.90;;;;;;790218;180;27015;-79
2024/03/13 12:00:59;;;;;;;43.53;25.23;;;13.30;99.90;;;;;;789439;180;26484;-80
2024/03/13 12:03:39;;;;;;;29.93;19.13;;;13.30;99.90;;;;;;790320;180;26468;-80
2024/03/13 12:06:02;;;;;;;22.93;12.87;;;13.30;99.90;;;;;;790618;180;26510;-80
2024/03/13 12:08:28;;;;;;;27.50;16.37;;;13.40;99.90;;;;;;791084;180;26449;-80
2024/03/13 12:10:55;;;;;;;25.23;12.63;;;13.40;99.90;;;;;;791289;180;26498;-80
2024/03/13 12:13:22;;;;;;;15.77;9.77;;;13.40;99.90;;;;;;791538;180;26483;-78
2024/03/13 12:15:48;;;;;;;12.03;5.67;;;13.40;99.90;;;;;;793085;179;26450;-79
2024/03/13 12:18:18;;;;;;;10.83;7.37;;;13.30;99.90;;;;;;793115;179;26454;-78
2024/03/13 12:20:45;;;;;;;8.20;7.33;;;13.30;99.90;;;;;;790254;176;27042;-79
2024/03/13 12:23:13;;;;;;;19.77;11.20;;;13.30;99.90;;;;;;790660;180;26460;-79
2024/03/13 12:25:40;;;;;;;14.67;9.57;;;13.40;99.90;;;;;;791012;181;26446;-79
2024/03/13 12:28:12;;;;;;;24.03;14.37;;;13.40;99.90;;;;;;790457;180;26504;-78
2024/03/13 12:30:38;;;;;;;12.23;7.00;;;13.50;99.90;;;;;;790867;180;26607;-78
2024/03/13 12:33:05;;;;;;;15.17;9.23;;;13.50;99.90;;;;;;791663;179;26467;-79
2024/03/13 12:35:33;;;;;;;13.20;8.13;;;13.60;99.90;;;;;;790657;179;26448;-78
2024/03/13 12:38:01;;;;;;;7.90;5.33;;;13.60;99.90;;;;;;789726;181;27007;-78
2024/03/13 12:40:27;;;;;;;12.83;6.63;;;13.60;99.90;;;;;;789370;178;26531;-80
2024/03/13 12:42:54;;;;;;;11.13;6.63;;;13.60;99.90;;;;;;788023;181;26465;-78
2024/03/13 12:45:21;;;;;;;14.60;7.60;;;13.50;99.90;;;;;;790858;180;26467;-78
2024/03/13 12:47:47;;;;;;;12.20;8.00;;;13.50;99.90;;;;;;790934;180;26455;-79
2024/03/13 12:50:15;;;;;;;16.43;7.73;;;13.60;99.90;;;;;;789519;180;26509;-79
2024/03/13 12:52:41;;;;;;;10.83;6.07;;;13.60;99.90;;;;;;788743;181;26499;-79
2024/03/13 12:55:08;;;;;;;11.10;5.63;;;13.50;99.90;;;;;;790964;181;26472;-79